sensor_id;sensor_type;location;lat;lon;timestamp;pressure;altitude;pressure_sealevel;temperature
20289;BMP180;10303;51.960;8.372;2023-02-28T00:00:35;101933.00;;;3.20
20289;BMP180;10303;51.960;8.372;2023-02-28T00:03:02;101935.00;;;3.20
20289;BMP180;10303;51.960;8.372;2023-02-28T00:05:29;101927.00;;;3.10
20289;BMP180;10303;51.960;8.372;2023-02-28T00:07:55;101927.00;;;3.10
20289;BMP180;10303;51.960;8.372;2023-02-28T00:10:28;101923.00;;;3.00
20289;BMP180;10303;51.960;8.372;2023-02-28T00:12:59;101908.00;;;3.00
20289;BMP180;10303;51.960;8.372;2023-02-28T00:15:26;101915.00;;;3.00
20289;BMP180;10303;51.960;8.372;2023-02-28T00:17:52;101913.00;;;2.90
20289;BMP180;10303;51.960;8.372;2023-02-28T00:20:18;101918.00;;;2.90
20289;BMP180;10303;51.960;8.372;2023-02-28T00:22:50;101915.00;;;2.80
20289;BMP180;10303;51.960;8.372;2023-02-28T00:25:23;101903.00;;;2.80
20289;BMP180;10303;51.960;8.372;2023-02-28T00:27:50;101910.00;;;2.80
20289;BMP180;10303;51.960;8.372;2023-02-28T00:30:22;101908.00;;;2.80
20289;BMP180;10303;51.960;8.372;2023-02-28T00:32:50;101909.00;;;2.70
20289;BMP180;10303;51.960;8.372;2023-02-28T00:35:18;101914.00;;;2.70
20289;BMP180;10303;51.960;8.372;2023-02-28T00:37:44;101914.00;;;2.70
20289;BMP180;10303;51.960;8.372;2023-02-28T00:40:11;101924.00;;;2.70
20289;BMP180;10303;51.960;8.372;2023-02-28T00:42:37;101917.00;;;2.70
20289;BMP180;10303;51.960;8.372;2023-02-28T00:45:04;101911.00;;;2.70
20289;BMP180;10303;51.960;8.372;2023-02-28T00:47:32;101927.00;;;2.60
20289;BMP180;10303;51.960;8.372;2023-02-28T00:49:57;101906.00;;;2.60
20289;BMP180;10303;51.960;8.372;2023-02-28T00:52:23;101909.00;;;2.60
20289;BMP180;10303;51.960;8.372;2023-02-28T00:54:50;101910.00;;;2.60
20289;BMP180;10303;51.960;8.372;2023-02-28T00:57:16;101899.00;;;2.60
20289;BMP180;10303;51.960;8.372;2023-02-28T00:59:41;101920.00;;;2.60
20289;BMP180;10303;51.960;8.372;2023-02-28T01:02:07;101928.00;;;2.60
20289;BMP180;10303;51.960;8.372;2023-02-28T01:04:36;101923.00;;;2.50
20289;BMP180;10303;51.960;8.372;2023-02-28T01:07:02;101916.00;;;2.60
20289;BMP180;10303;51.960;8.372;2023-02-28T01:09:28;101922.00;;;2.60
20289;BMP180;10303;51.960;8.372;2023-02-28T01:11:54;101920.00;;;2.50
20289;BMP180;10303;51.960;8.372;2023-02-28T01:14:20;101914.00;;;2.50
20289;BMP180;10303;51.960;8.372;2023-02-28T01:16:46;101923.00;;;2.50
20289;BMP180;10303;51.960;8.372;2023-02-28T01:19:12;101924.00;;;2.50
20289;BMP180;10303;51.960;8.372;2023-02-28T01:21:38;101906.00;;;2.50
20289;BMP180;10303;51.960;8.372;2023-02-28T01:24:05;101904.00;;;2.40
20289;BMP180;10303;51.960;8.372;2023-02-28T01:26:32;101911.00;;;2.40
20289;BMP180;10303;51.960;8.372;2023-02-28T01:28:58;101907.00;;;2.40
20289;BMP180;10303;51.960;8.372;2023-02-28T01:31:25;101920.00;;;2.30
20289;BMP180;10303;51.960;8.372;2023-02-28T01:33:51;101916.00;;;2.30
20289;BMP180;10303;51.960;8.372;2023-02-28T01:36:21;101924.00;;;2.20
20289;BMP180;10303;51.960;8.372;2023-02-28T01:38:48;101912.00;;;2.20
20289;BMP180;10303;51.960;8.372;2023-02-28T01:41:25;101911.00;;;2.20
20289;BMP180;10303;51.960;8.372;2023-02-28T01:47:11;101913.00;;;2.10
20289;BMP180;10303;51.960;8.372;2023-02-28T01:49:37;101903.00;;;2.10
20289;BMP180;10303;51.960;8.372;2023-02-28T01:52:03;101891.00;;;2.10
20289;BMP180;10303;51.960;8.372;2023-02-28T01:54:34;101895.00;;;2.00
20289;BMP180;10303;51.960;8.372;2023-02-28T01:57:18;101908.00;;;2.00
20289;BMP180;10303;51.960;8.372;2023-02-28T01:59:56;101919.00;;;1.90
20289;BMP180;10303;51.960;8.372;2023-02-28T02:02:25;101918.00;;;1.90
20289;BMP180;10303;51.960;8.372;2023-02-28T02:05:07;101913.00;;;1.90
20289;BMP180;10303;51.960;8.372;2023-02-28T02:07:40;101925.00;;;1.90
20289;BMP180;10303;51.960;8.372;2023-02-28T02:10:22;101914.00;;;1.80
20289;BMP180;10303;51.960;8.372;2023-02-28T02:13:26;101913.00;;;1.80
20289;BMP180;10303;51.960;8.372;2023-02-28T02:30:56;101917.00;;;1.70
20289;BMP180;10303;51.960;8.372;2023-02-28T02:36:37;101885.00;;;1.60
20289;BMP180;10303;51.960;8.372;2023-02-28T02:39:29;101898.00;;;1.60
20289;BMP180;10303;51.960;8.372;2023-02-28T02:42:01;101897.00;;;1.60
20289;BMP180;10303;51.960;8.372;2023-02-28T02:44:40;101902.00;;;1.60
20289;BMP180;10303;51.960;8.372;2023-02-28T02:47:16;101889.00;;;1.60
20289;BMP180;10303;51.960;8.372;2023-02-28T02:49:51;101899.00;;;1.60
20289;BMP180;10303;51.960;8.372;2023-02-28T02:52:23;101901.00;;;1.60
20289;BMP180;10303;51.960;8.372;2023-02-28T02:54:54;101906.00;;;1.60
20289;BMP180;10303;51.960;8.372;2023-02-28T02:57:33;101902.00;;;1.50
20289;BMP180;10303;51.960;8.372;2023-02-28T03:00:04;101896.00;;;1.50
20289;BMP180;10303;51.960;8.372;2023-02-28T03:02:32;101893.00;;;1.50
20289;BMP180;10303;51.960;8.372;2023-02-28T03:05:04;101902.00;;;1.50
20289;BMP180;10303;51.960;8.372;2023-02-28T03:07:31;101901.00;;;1.50
20289;BMP180;10303;51.960;8.372;2023-02-28T03:09:57;101904.00;;;1.50
20289;BMP180;10303;51.960;8.372;2023-02-28T03:12:37;101886.00;;;1.40
20289;BMP180;10303;51.960;8.372;2023-02-28T03:15:43;101915.00;;;1.40
20289;BMP180;10303;51.960;8.372;2023-02-28T03:18:43;101917.00;;;1.40
20289;BMP180;10303;51.960;8.372;2023-02-28T03:21:43;101915.00;;;1.30
20289;BMP180;10303;51.960;8.372;2023-02-28T03:24:30;101921.00;;;1.30
20289;BMP180;10303;51.960;8.372;2023-02-28T03:27:16;101913.00;;;1.30
20289;BMP180;10303;51.960;8.372;2023-02-28T03:29:51;101898.00;;;1.30
20289;BMP180;10303;51.960;8.372;2023-02-28T03:32:46;101899.00;;;1.20
20289;BMP180;10303;51.960;8.372;2023-02-28T03:35:32;101916.00;;;1.20
20289;BMP180;10303;51.960;8.372;2023-02-28T03:38:15;101908.00;;;1.20
20289;BMP180;10303;51.960;8.372;2023-02-28T03:40:51;101900.00;;;1.20
20289;BMP180;10303;51.960;8.372;2023-02-28T03:43:30;101892.00;;;1.10
20289;BMP180;10303;51.960;8.372;2023-02-28T03:46:05;101884.00;;;1.10
20289;BMP180;10303;51.960;8.372;2023-02-28T03:48:44;101888.00;;;1.10
20289;BMP180;10303;51.960;8.372;2023-02-28T03:51:17;101890.00;;;1.10
20289;BMP180;10303;51.960;8.372;2023-02-28T03:53:50;101900.00;;;1.10
20289;BMP180;10303;51.960;8.372;2023-02-28T03:56:31;101904.00;;;1.10
20289;BMP180;10303;51.960;8.372;2023-02-28T03:59:43;101918.00;;;1.10
20289;BMP180;10303;51.960;8.372;2023-02-28T04:02:10;101902.00;;;1.10
20289;BMP180;10303;51.960;8.372;2023-02-28T04:04:36;101906.00;;;1.00
20289;BMP180;10303;51.960;8.372;2023-02-28T04:07:07;101901.00;;;1.00
20289;BMP180;10303;51.960;8.372;2023-02-28T04:09:34;101892.00;;;1.00
20289;BMP180;10303;51.960;8.372;2023-02-28T04:12:00;101909.00;;;1.00
20289;BMP180;10303;51.960;8.372;2023-02-28T04:14:26;101899.00;;;1.00
20289;BMP180;10303;51.960;8.372;2023-02-28T04:16:52;101900.00;;;1.00
20289;BMP180;10303;51.960;8.372;2023-02-28T04:19:19;101918.00;;;1.00
20289;BMP180;10303;51.960;8.372;2023-02-28T04:21:51;101907.00;;;1.00
20289;BMP180;10303;51.960;8.372;2023-02-28T04:24:24;101896.00;;;0.90
20289;BMP180;10303;51.960;8.372;2023-02-28T04:26:54;101909.00;;;0.90
20289;BMP180;10303;51.960;8.372;2023-02-28T04:29:27;101901.00;;;0.90
20289;BMP180;10303;51.960;8.372;2023-02-28T04:31:55;101897.00;;;0.90
20289;BMP180;10303;51.960;8.372;2023-02-28T04:34:24;101900.00;;;0.90
20289;BMP180;10303;51.960;8.372;2023-02-28T04:36:53;101902.00;;;0.90
20289;BMP180;10303;51.960;8.372;2023-02-28T04:39:21;101901.00;;;0.80
20289;BMP180;10303;51.960;8.372;2023-02-28T04:41:48;101900.00;;;0.80
20289;BMP180;10303;51.960;8.372;2023-02-28T04:44:14;101915.00;;;0.80
20289;BMP180;10303;51.960;8.372;2023-02-28T04:46:41;101904.00;;;0.80
20289;BMP180;10303;51.960;8.372;2023-02-28T04:49:10;101897.00;;;0.80
20289;BMP180;10303;51.960;8.372;2023-02-28T04:51:37;101893.00;;;0.70
20289;BMP180;10303;51.960;8.372;2023-02-28T04:54:03;101889.00;;;0.70
20289;BMP180;10303;51.960;8.372;2023-02-28T04:56:29;101909.00;;;0.70
20289;BMP180;10303;51.960;8.372;2023-02-28T04:58:55;101898.00;;;0.60
20289;BMP180;10303;51.960;8.372;2023-02-28T05:01:33;101904.00;;;0.60
20289;BMP180;10303;51.960;8.372;2023-02-28T05:04:03;101904.00;;;0.60
20289;BMP180;10303;51.960;8.372;2023-02-28T05:06:32;101904.00;;;0.50
20289;BMP180;10303;51.960;8.372;2023-02-28T05:08:59;101901.00;;;0.50
20289;BMP180;10303;51.960;8.372;2023-02-28T05:11:32;101898.00;;;0.50
20289;BMP180;10303;51.960;8.372;2023-02-28T05:14:04;101912.00;;;0.50
20289;BMP180;10303;51.960;8.372;2023-02-28T05:16:31;101899.00;;;0.40
20289;BMP180;10303;51.960;8.372;2023-02-28T05:18:58;101907.00;;;0.40
20289;BMP180;10303;51.960;8.372;2023-02-28T05:21:36;101911.00;;;0.40
20289;BMP180;10303;51.960;8.372;2023-02-28T05:24:09;101897.00;;;0.30
20289;BMP180;10303;51.960;8.372;2023-02-28T05:26:39;101890.00;;;0.30
20289;BMP180;10303;51.960;8.372;2023-02-28T05:29:06;101919.00;;;0.30
20289;BMP180;10303;51.960;8.372;2023-02-28T05:31:32;101916.00;;;0.30
20289;BMP180;10303;51.960;8.372;2023-02-28T05:34:00;101928.00;;;0.30
20289;BMP180;10303;51.960;8.372;2023-02-28T05:36:26;101922.00;;;0.20
20289;BMP180;10303;51.960;8.372;2023-02-28T05:38:52;101925.00;;;0.20
20289;BMP180;10303;51.960;8.372;2023-02-28T05:41:19;101925.00;;;0.20
20289;BMP180;10303;51.960;8.372;2023-02-28T05:43:46;101933.00;;;0.20
20289;BMP180;10303;51.960;8.372;2023-02-28T05:46:13;101924.00;;;0.10
20289;BMP180;10303;51.960;8.372;2023-02-28T05:48:42;101939.00;;;0.10
20289;BMP180;10303;51.960;8.372;2023-02-28T05:51:08;101918.00;;;0.10
20289;BMP180;10303;51.960;8.372;2023-02-28T05:53:35;101931.00;;;0.10
20289;BMP180;10303;51.960;8.372;2023-02-28T05:56:01;101917.00;;;0.00
20289;BMP180;10303;51.960;8.372;2023-02-28T05:58:27;101916.00;;;0.00
20289;BMP180;10303;51.960;8.372;2023-02-28T06:01:00;101914.00;;;0.00
20289;BMP180;10303;51.960;8.372;2023-02-28T06:03:43;101902.00;;;0.00
20289;BMP180;10303;51.960;8.372;2023-02-28T06:06:09;101913.00;;;-0.10
20289;BMP180;10303;51.960;8.372;2023-02-28T06:08:35;101926.00;;;-0.10
20289;BMP180;10303;51.960;8.372;2023-02-28T06:11:03;101926.00;;;-0.10
20289;BMP180;10303;51.960;8.372;2023-02-28T06:13:29;101925.00;;;-0.10
20289;BMP180;10303;51.960;8.372;2023-02-28T06:15:55;101922.00;;;-0.10
20289;BMP180;10303;51.960;8.372;2023-02-28T06:18:21;101929.00;;;-0.20
20289;BMP180;10303;51.960;8.372;2023-02-28T06:20:54;101927.00;;;-0.20
20289;BMP180;10303;51.960;8.372;2023-02-28T06:23:21;101930.00;;;-0.20
20289;BMP180;10303;51.960;8.372;2023-02-28T06:25:47;101927.00;;;-0.20
20289;BMP180;10303;51.960;8.372;2023-02-28T06:28:15;101933.00;;;-0.20
20289;BMP180;10303;51.960;8.372;2023-02-28T06:30:41;101915.00;;;-0.20
20289;BMP180;10303;51.960;8.372;2023-02-28T06:33:07;101922.00;;;-0.20
20289;BMP180;10303;51.960;8.372;2023-02-28T06:35:33;101934.00;;;-0.20
20289;BMP180;10303;51.960;8.372;2023-02-28T06:37:59;101937.00;;;-0.30
20289;BMP180;10303;51.960;8.372;2023-02-28T06:40:24;101927.00;;;-0.30
20289;BMP180;10303;51.960;8.372;2023-02-28T06:42:56;101927.00;;;-0.30
20289;BMP180;10303;51.960;8.372;2023-02-28T06:45:22;101936.00;;;-0.20
20289;BMP180;10303;51.960;8.372;2023-02-28T06:47:48;101942.00;;;-0.20
20289;BMP180;10303;51.960;8.372;2023-02-28T06:50:18;101929.00;;;-0.20
20289;BMP180;10303;51.960;8.372;2023-02-28T06:52:46;101943.00;;;-0.20
20289;BMP180;10303;51.960;8.372;2023-02-28T06:55:12;101925.00;;;-0.20
20289;BMP180;10303;51.960;8.372;2023-02-28T06:57:38;101929.00;;;-0.20
20289;BMP180;10303;51.960;8.372;2023-02-28T07:00:08;101939.00;;;-0.10
20289;BMP180;10303;51.960;8.372;2023-02-28T07:02:36;101948.00;;;-0.10
20289;BMP180;10303;51.960;8.372;2023-02-28T07:05:07;101965.00;;;-0.10
20289;BMP180;10303;51.960;8.372;2023-02-28T07:07:33;101956.00;;;-0.10
20289;BMP180;10303;51.960;8.372;2023-02-28T07:10:02;101943.00;;;-0.10
20289;BMP180;10303;51.960;8.372;2023-02-28T07:12:28;101954.00;;;0.00
20289;BMP180;10303;51.960;8.372;2023-02-28T07:14:53;101956.00;;;0.00
20289;BMP180;10303;51.960;8.372;2023-02-28T07:17:21;101955.00;;;0.10
20289;BMP180;10303;51.960;8.372;2023-02-28T07:19:47;101969.00;;;0.10
20289;BMP180;10303;51.960;8.372;2023-02-28T07:22:13;101975.00;;;0.10
20289;BMP180;10303;51.960;8.372;2023-02-28T07:24:38;101972.00;;;0.20
20289;BMP180;10303;51.960;8.372;2023-02-28T07:27:04;101963.00;;;0.20
20289;BMP180;10303;51.960;8.372;2023-02-28T07:29:30;101987.00;;;0.30
20289;BMP180;10303;51.960;8.372;2023-02-28T07:31:56;101970.00;;;0.30
20289;BMP180;10303;51.960;8.372;2023-02-28T07:34:22;101962.00;;;0.40
20289;BMP180;10303;51.960;8.372;2023-02-28T07:36:48;101977.00;;;0.40
20289;BMP180;10303;51.960;8.372;2023-02-28T07:39:14;101977.00;;;0.50
20289;BMP180;10303;51.960;8.372;2023-02-28T07:41:40;101979.00;;;0.60
20289;BMP180;10303;51.960;8.372;2023-02-28T07:44:12;101979.00;;;0.60
20289;BMP180;10303;51.960;8.372;2023-02-28T07:46:38;101969.00;;;0.70
20289;BMP180;10303;51.960;8.372;2023-02-28T07:49:05;101989.00;;;0.80
20289;BMP180;10303;51.960;8.372;2023-02-28T07:51:31;101982.00;;;0.80
20289;BMP180;10303;51.960;8.372;2023-02-28T07:53:58;101990.00;;;0.90
20289;BMP180;10303;51.960;8.372;2023-02-28T07:56:23;101986.00;;;1.00
20289;BMP180;10303;51.960;8.372;2023-02-28T07:58:49;101990.00;;;1.10
20289;BMP180;10303;51.960;8.372;2023-02-28T08:01:15;101986.00;;;1.20
20289;BMP180;10303;51.960;8.372;2023-02-28T08:03:41;101979.00;;;1.30
20289;BMP180;10303;51.960;8.372;2023-02-28T08:06:20;101988.00;;;1.30
20289;BMP180;10303;51.960;8.372;2023-02-28T08:08:48;101987.00;;;1.40
20289;BMP180;10303;51.960;8.372;2023-02-28T08:11:14;101987.00;;;1.60
20289;BMP180;10303;51.960;8.372;2023-02-28T08:13:40;101992.00;;;1.70
20289;BMP180;10303;51.960;8.372;2023-02-28T08:16:08;101985.00;;;1.80
20289;BMP180;10303;51.960;8.372;2023-02-28T08:18:33;101981.00;;;1.90
20289;BMP180;10303;51.960;8.372;2023-02-28T08:20:59;101991.00;;;2.00
20289;BMP180;10303;51.960;8.372;2023-02-28T08:23:30;101986.00;;;2.10
20289;BMP180;10303;51.960;8.372;2023-02-28T08:25:59;101980.00;;;2.20
20289;BMP180;10303;51.960;8.372;2023-02-28T08:28:25;101985.00;;;2.30
20289;BMP180;10303;51.960;8.372;2023-02-28T08:30:51;101982.00;;;2.40
20289;BMP180;10303;51.960;8.372;2023-02-28T08:33:16;101994.00;;;2.50
20289;BMP180;10303;51.960;8.372;2023-02-28T08:35:42;101991.00;;;2.60
20289;BMP180;10303;51.960;8.372;2023-02-28T08:38:08;101984.00;;;2.80
20289;BMP180;10303;51.960;8.372;2023-02-28T08:40:34;101985.00;;;2.90
20289;BMP180;10303;51.960;8.372;2023-02-28T08:43:00;101986.00;;;3.00
20289;BMP180;10303;51.960;8.372;2023-02-28T08:45:26;101986.00;;;3.10
20289;BMP180;10303;51.960;8.372;2023-02-28T08:47:54;101989.00;;;3.20
20289;BMP180;10303;51.960;8.372;2023-02-28T08:50:20;102005.00;;;3.40
20289;BMP180;10303;51.960;8.372;2023-02-28T08:52:46;101982.00;;;3.50
20289;BMP180;10303;51.960;8.372;2023-02-28T08:55:12;101991.00;;;3.70
20289;BMP180;10303;51.960;8.372;2023-02-28T08:57:38;101994.00;;;3.90
20289;BMP180;10303;51.960;8.372;2023-02-28T09:00:04;101999.00;;;4.20
20289;BMP180;10303;51.960;8.372;2023-02-28T09:02:31;101995.00;;;4.50
20289;BMP180;10303;51.960;8.372;2023-02-28T09:04:57;102005.00;;;4.80
20289;BMP180;10303;51.960;8.372;2023-02-28T09:07:24;102003.00;;;5.20
20289;BMP180;10303;51.960;8.372;2023-02-28T09:09:51;102015.00;;;5.60
20289;BMP180;10303;51.960;8.372;2023-02-28T09:12:24;102007.00;;;6.00
20289;BMP180;10303;51.960;8.372;2023-02-28T09:14:51;102006.00;;;6.30
20289;BMP180;10303;51.960;8.372;2023-02-28T09:17:18;102002.00;;;6.70
20289;BMP180;10303;51.960;8.372;2023-02-28T09:19:44;102013.00;;;7.10
20289;BMP180;10303;51.960;8.372;2023-02-28T09:22:11;101998.00;;;7.50
20289;BMP180;10303;51.960;8.372;2023-02-28T09:24:37;102004.00;;;7.80
20289;BMP180;10303;51.960;8.372;2023-02-28T09:27:04;102002.00;;;8.00
20289;BMP180;10303;51.960;8.372;2023-02-28T09:29:32;102011.00;;;8.30
20289;BMP180;10303;51.960;8.372;2023-02-28T09:31:58;102001.00;;;8.60
20289;BMP180;10303;51.960;8.372;2023-02-28T09:34:26;102007.00;;;8.80
20289;BMP180;10303;51.960;8.372;2023-02-28T09:36:52;102007.00;;;9.00
20289;BMP180;10303;51.960;8.372;2023-02-28T09:39:21;102011.00;;;9.20
20289;BMP180;10303;51.960;8.372;2023-02-28T09:41:52;102013.00;;;9.30
20289;BMP180;10303;51.960;8.372;2023-02-28T09:44:39;102011.00;;;9.40
20289;BMP180;10303;51.960;8.372;2023-02-28T09:47:41;102014.00;;;9.60
20289;BMP180;10303;51.960;8.372;2023-02-28T09:50:29;102009.00;;;9.80
20289;BMP180;10303;51.960;8.372;2023-02-28T09:52:59;102011.00;;;10.10
20289;BMP180;10303;51.960;8.372;2023-02-28T09:55:50;102025.00;;;10.30
20289;BMP180;10303;51.960;8.372;2023-02-28T09:58:49;102015.00;;;10.40
20289;BMP180;10303;51.960;8.372;2023-02-28T10:04:08;102024.00;;;10.30
20289;BMP180;10303;51.960;8.372;2023-02-28T10:06:49;102011.00;;;10.10
20289;BMP180;10303;51.960;8.372;2023-02-28T10:09:22;102011.00;;;10.10
20289;BMP180;10303;51.960;8.372;2023-02-28T10:11:56;102014.00;;;10.00
20289;BMP180;10303;51.960;8.372;2023-02-28T10:14:26;102006.00;;;10.00
20289;BMP180;10303;51.960;8.372;2023-02-28T10:19:30;102017.00;;;10.10
20289;BMP180;10303;51.960;8.372;2023-02-28T10:24:44;102015.00;;;10.10
20289;BMP180;10303;51.960;8.372;2023-02-28T10:27:18;102019.00;;;10.10
20289;BMP180;10303;51.960;8.372;2023-02-28T10:29:56;102016.00;;;10.20
20289;BMP180;10303;51.960;8.372;2023-02-28T10:32:35;102020.00;;;10.30
20289;BMP180;10303;51.960;8.372;2023-02-28T10:35:25;102015.00;;;10.40
20289;BMP180;10303;51.960;8.372;2023-02-28T10:37:59;102014.00;;;10.50
20289;BMP180;10303;51.960;8.372;2023-02-28T10:40:35;102024.00;;;10.60
20289;BMP180;10303;51.960;8.372;2023-02-28T10:45:52;102013.00;;;11.00
20289;BMP180;10303;51.960;8.372;2023-02-28T10:50:52;102018.00;;;11.10
20289;BMP180;10303;51.960;8.372;2023-02-28T10:59:25;102011.00;;;10.80
20289;BMP180;10303;51.960;8.372;2023-02-28T11:01:52;101999.00;;;10.90
20289;BMP180;10303;51.960;8.372;2023-02-28T11:07:17;102007.00;;;11.30
20289;BMP180;10303;51.960;8.372;2023-02-28T11:09:48;102007.00;;;11.50
20289;BMP180;10303;51.960;8.372;2023-02-28T11:12:39;102006.00;;;11.80
20289;BMP180;10303;51.960;8.372;2023-02-28T11:15:27;102006.00;;;12.10
20289;BMP180;10303;51.960;8.372;2023-02-28T11:18:29;101997.00;;;12.20
20289;BMP180;10303;51.960;8.372;2023-02-28T11:20:59;102008.00;;;12.40
20289;BMP180;10303;51.960;8.372;2023-02-28T11:23:30;101997.00;;;12.40
20289;BMP180;10303;51.960;8.372;2023-02-28T11:26:02;101991.00;;;12.30
20289;BMP180;10303;51.960;8.372;2023-02-28T11:28:35;101991.00;;;12.30
20289;BMP180;10303;51.960;8.372;2023-02-28T11:33:52;101981.00;;;12.30
20289;BMP180;10303;51.960;8.372;2023-02-28T11:38:47;101982.00;;;12.30
20289;BMP180;10303;51.960;8.372;2023-02-28T11:52:38;101970.00;;;13.30
20289;BMP180;10303;51.960;8.372;2023-02-28T11:55:42;101972.00;;;13.50
20289;BMP180;10303;51.960;8.372;2023-02-28T12:01:38;101969.00;;;14.10
20289;BMP180;10303;51.960;8.372;2023-02-28T12:13:18;101953.00;;;15.00
20289;BMP180;10303;51.960;8.372;2023-02-28T12:25:08;101947.00;;;15.60
20289;BMP180;10303;51.960;8.372;2023-02-28T12:27:44;101953.00;;;15.80
20289;BMP180;10303;51.960;8.372;2023-02-28T12:30:29;101938.00;;;15.90
20289;BMP180;10303;51.960;8.372;2023-02-28T12:33:10;101950.00;;;16.00
20289;BMP180;10303;51.960;8.372;2023-02-28T12:35:51;101937.00;;;16.20
20289;BMP180;10303;51.960;8.372;2023-02-28T12:38:55;101936.00;;;16.20
20289;BMP180;10303;51.960;8.372;2023-02-28T12:44:21;101930.00;;;16.40
20289;BMP180;10303;51.960;8.372;2023-02-28T12:46:58;101917.00;;;16.50
20289;BMP180;10303;51.960;8.372;2023-02-28T12:49:33;101922.00;;;16.40
20289;BMP180;10303;51.960;8.372;2023-02-28T12:52:01;101918.00;;;16.40
20289;BMP180;10303;51.960;8.372;2023-02-28T13:09:59;101896.00;;;16.00
20289;BMP180;10303;51.960;8.372;2023-02-28T13:12:26;101898.00;;;15.80
20289;BMP180;10303;51.960;8.372;2023-02-28T13:15:18;101899.00;;;15.60
20289;BMP180;10303;51.960;8.372;2023-02-28T13:17:58;101898.00;;;15.60
20289;BMP180;10303;51.960;8.372;2023-02-28T13:20:34;101896.00;;;15.40
20289;BMP180;10303;51.960;8.372;2023-02-28T13:23:01;101898.00;;;15.30
20289;BMP180;10303;51.960;8.372;2023-02-28T13:28:02;101900.00;;;15.00
20289;BMP180;10303;51.960;8.372;2023-02-28T13:33:30;101900.00;;;14.70
20289;BMP180;10303;51.960;8.372;2023-02-28T13:38:56;101901.00;;;14.50
20289;BMP180;10303;51.960;8.372;2023-02-28T13:44:22;101892.00;;;14.20
20289;BMP180;10303;51.960;8.372;2023-02-28T13:52:17;101879.00;;;13.90
20289;BMP180;10303;51.960;8.372;2023-02-28T13:55:18;101884.00;;;13.70
20289;BMP180;10303;51.960;8.372;2023-02-28T14:01:16;101878.00;;;13.40
20289;BMP180;10303;51.960;8.372;2023-02-28T14:04:24;101885.00;;;13.30
20289;BMP180;10303;51.960;8.372;2023-02-28T14:06:56;101876.00;;;13.20
20289;BMP180;10303;51.960;8.372;2023-02-28T14:09:49;101872.00;;;13.00
20289;BMP180;10303;51.960;8.372;2023-02-28T14:15:39;101877.00;;;12.90
20289;BMP180;10303;51.960;8.372;2023-02-28T14:18:32;101863.00;;;12.90
20289;BMP180;10303;51.960;8.372;2023-02-28T14:33:25;101865.00;;;12.60
20289;BMP180;10303;51.960;8.372;2023-02-28T14:36:16;101858.00;;;12.60
20289;BMP180;10303;51.960;8.372;2023-02-28T14:38:48;101853.00;;;12.60
20289;BMP180;10303;51.960;8.372;2023-02-28T14:41:33;101858.00;;;12.50
20289;BMP180;10303;51.960;8.372;2023-02-28T14:44:21;101856.00;;;12.50
20289;BMP180;10303;51.960;8.372;2023-02-28T14:46:55;101860.00;;;12.40
20289;BMP180;10303;51.960;8.372;2023-02-28T14:49:27;101848.00;;;12.40
20289;BMP180;10303;51.960;8.372;2023-02-28T14:52:16;101853.00;;;12.30
20289;BMP180;10303;51.960;8.372;2023-02-28T14:54:44;101845.00;;;12.30
20289;BMP180;10303;51.960;8.372;2023-02-28T14:57:27;101842.00;;;12.30
20289;BMP180;10303;51.960;8.372;2023-02-28T15:00:16;101850.00;;;12.20
20289;BMP180;10303;51.960;8.372;2023-02-28T15:02:45;101850.00;;;12.30
20289;BMP180;10303;51.960;8.372;2023-02-28T15:07:48;101842.00;;;12.20
20289;BMP180;10303;51.960;8.372;2023-02-28T15:10:23;101857.00;;;12.20
20289;BMP180;10303;51.960;8.372;2023-02-28T15:12:58;101846.00;;;12.10
20289;BMP180;10303;51.960;8.372;2023-02-28T15:18:18;101854.00;;;12.00
20289;BMP180;10303;51.960;8.372;2023-02-28T15:20:47;101853.00;;;12.00
20289;BMP180;10303;51.960;8.372;2023-02-28T15:23:15;101857.00;;;12.00
20289;BMP180;10303;51.960;8.372;2023-02-28T15:25:41;101854.00;;;12.00
20289;BMP180;10303;51.960;8.372;2023-02-28T15:28:22;101852.00;;;12.00
20289;BMP180;10303;51.960;8.372;2023-02-28T15:31:02;101864.00;;;12.00
20289;BMP180;10303;51.960;8.372;2023-02-28T15:33:32;101859.00;;;12.00
20289;BMP180;10303;51.960;8.372;2023-02-28T15:36:15;101854.00;;;12.00
20289;BMP180;10303;51.960;8.372;2023-02-28T15:38:43;101858.00;;;12.00
20289;BMP180;10303;51.960;8.372;2023-02-28T15:41:30;101863.00;;;12.00
20289;BMP180;10303;51.960;8.372;2023-02-28T15:47:06;101852.00;;;12.00
20289;BMP180;10303;51.960;8.372;2023-02-28T15:49:50;101855.00;;;11.90
20289;BMP180;10303;51.960;8.372;2023-02-28T15:52:22;101860.00;;;11.90
20289;BMP180;10303;51.960;8.372;2023-02-28T15:54:50;101862.00;;;11.90
20289;BMP180;10303;51.960;8.372;2023-02-28T15:57:25;101869.00;;;11.80
20289;BMP180;10303;51.960;8.372;2023-02-28T16:00:00;101870.00;;;11.80
20289;BMP180;10303;51.960;8.372;2023-02-28T16:02:35;101865.00;;;11.80
20289;BMP180;10303;51.960;8.372;2023-02-28T16:07:41;101872.00;;;11.70
20289;BMP180;10303;51.960;8.372;2023-02-28T16:10:12;101870.00;;;11.60
20289;BMP180;10303;51.960;8.372;2023-02-28T16:12:41;101870.00;;;11.60
20289;BMP180;10303;51.960;8.372;2023-02-28T16:15:22;101865.00;;;11.40
20289;BMP180;10303;51.960;8.372;2023-02-28T16:17:49;101878.00;;;11.40
20289;BMP180;10303;51.960;8.372;2023-02-28T16:20:21;101875.00;;;11.30
20289;BMP180;10303;51.960;8.372;2023-02-28T16:22:47;101871.00;;;11.30
20289;BMP180;10303;51.960;8.372;2023-02-28T16:25:20;101879.00;;;11.10
20289;BMP180;10303;51.960;8.372;2023-02-28T16:27:52;101879.00;;;11.00
20289;BMP180;10303;51.960;8.372;2023-02-28T16:30:23;101865.00;;;10.90
20289;BMP180;10303;51.960;8.372;2023-02-28T16:32:51;101861.00;;;10.80
20289;BMP180;10303;51.960;8.372;2023-02-28T16:35:19;101863.00;;;10.80
20289;BMP180;10303;51.960;8.372;2023-02-28T16:37:46;101862.00;;;10.70
20289;BMP180;10303;51.960;8.372;2023-02-28T16:40:22;101876.00;;;10.60
20289;BMP180;10303;51.960;8.372;2023-02-28T16:42:50;101876.00;;;10.50
20289;BMP180;10303;51.960;8.372;2023-02-28T16:45:24;101871.00;;;10.40
20289;BMP180;10303;51.960;8.372;2023-02-28T16:47:52;101881.00;;;10.40
20289;BMP180;10303;51.960;8.372;2023-02-28T16:50:25;101881.00;;;10.20
20289;BMP180;10303;51.960;8.372;2023-02-28T16:52:51;101887.00;;;10.20
20289;BMP180;10303;51.960;8.372;2023-02-28T16:55:18;101879.00;;;10.00
20289;BMP180;10303;51.960;8.372;2023-02-28T16:57:52;101886.00;;;9.90